UTNU

Urgench Airport

Urgench, Uzbekistan
TAF UTNU 261100Z 2612/2712 14010G20KT 8000 NSC TEMPO 2612/2618 VRB05KT 3000 HZ
Issued Valid From Valid To
Apr-26 @ 11:00 UTC
(3 hours ago)
Apr-26 @ 12:00 UTC
(2 hours ago)
Apr-27 @ 12:00 UTC
(in 22 hours)
Apr-26 @ 12:00 to Apr-27 @ 12:00
TAF UTNU 261100Z 2612/2712 14010G20KT 8000 NSC
Wind Visibility Clouds
140° at 10 knots
 Gusting to 20 knots
7,998 meters
  • No significant clouds
Temporary Apr-26 @ 12:00 to Apr-26 @ 18:00
TEMPO 2612/2618 VRB05KT 3000 HZ
Wind Visibility Conditions
Variable at 5 knots 2,993 meters
  • Haze
TAF UTNU 261100Z 2612/2712 14010G20KT 8000 NSC TEMPO 2612/2618 VRB05KT 3000 HZ
Issued Apr-26 @ 11:00 UTC
(3 hours ago)
Valid From Apr-26 @ 12:00 UTC
(2 hours ago)
Valid To Apr-27 @ 12:00 UTC
(in 22 hours)
Apr-26 @ 12:00 - Apr-27 @ 12:00
Wind Visibility
140° at 10 knots
 Gusting to 20 knots
7,998 meters
Clouds
  • No significant clouds
Temporary Apr-26 @ 12:00 - Apr-26 @ 18:00
Wind Visibility
Variable at 5 knots 2,993 meters
Conditions
  • Haze